Maersk Bintan — VROX4 — position and weather

sailwx.info

Track history (hours):
 
Tides and Currents Weather Stations Pressure Air Temp Water Temp Dewpoint Dewpoint Depression Visibility Wind Speed Wind Dir Waves Ship Positions

Maersk Bintan

Last reported at 2018-Jan-19 13:37 UTC. Time now 2018-Jan-21 06:59 UTC.
Position N 09°43' W 079°40'.

Length 223 m; draft 11.8 m.

Type: Cargo ship. MMSI: 477178900.

Date/timePositionNaut miles runAvg speedWind from/ knotsBaromVisibWave heightAir tempDewpointWater temp
2018-Jan-19 13:37N 09°43' W 079°40'417.5
2018-Jan-19 13:24N 09°40' W 079°42'717.9
2018-Jan-19 13:00N 09°35' W 079°47'917.4
2018-Jan-19 12:30N 09°27' W 079°52'611.4
2018-Jan-19 12:01N 09°22' W 079°53'0 0.6
2018-Jan-19 11:22N 09°22' W 079°53'0 0.0
2018-Jan-19 10:58N 09°22' W 079°53'0 0.0
2018-Jan-19 10:28N 09°22' W 079°53'0 0.0
2018-Jan-19 09:58N 09°22' W 079°53'0 0.0
2018-Jan-19 09:28N 09°22' W 079°53'0 0.0
2018-Jan-19 08:58N 09°22' W 079°53'0 0.1
2018-Jan-19 08:28N 09°22' W 079°53'0 0.1
2018-Jan-19 07:58N 09°22' W 079°53'0 0.0
2018-Jan-19 07:28N 09°22' W 079°53'0 0.0
2018-Jan-19 06:58N 09°22' W 079°53'0 0.0
2018-Jan-19 06:28N 09°22' W 079°53'0 0.0
2018-Jan-19 05:58N 09°22' W 079°53'0 0.0
2018-Jan-19 05:28N 09°22' W 079°53'0 0.0
2018-Jan-19 04:58N 09°22' W 079°53'0 0.0
2018-Jan-19 03:07N 09°22' W 079°53'0 0.0
2018-Jan-19 02:58N 09°22' W 079°53'0 0.0
2018-Jan-19 02:28N 09°22' W 079°53'0 0.0
2018-Jan-19 01:58N 09°22' W 079°53'0 0.0
2018-Jan-19 01:28N 09°22' W 079°53'0 0.0
2018-Jan-19 00:58N 09°22' W 079°53'0 0.0
2018-Jan-19 00:28N 09°22' W 079°53'0 0.0
2018-Jan-18 23:58N 09°22' W 079°53'0 0.0
2018-Jan-18 23:28N 09°22' W 079°53'0 0.0
2018-Jan-18 22:58N 09°22' W 079°53'0 0.0
2018-Jan-18 22:28N 09°22' W 079°53'0 0.0
2018-Jan-18 21:58N 09°22' W 079°53'0 0.0
2018-Jan-18 21:28N 09°22' W 079°53'0 0.0
2018-Jan-18 20:58N 09°22' W 079°53'0 0.5
2018-Jan-18 20:30N 09°22' W 079°53'3 6.1
2018-Jan-18 20:00N 09°25' W 079°54'2 4.9
2018-Jan-18 19:30N 09°26' W 079°56'510.4
2018-Jan-18 19:00N 09°20' W 079°55'3 6.5
2018-Jan-18 18:30N 09°17' W 079°55'1 1.2
2018-Jan-18 17:58N 09°17' W 079°55'0 0.4
2018-Jan-18 17:31N 09°16' W 079°55'0 0.4
2018-Jan-18 17:00N 09°16' W 079°55'0 0.4
2018-Jan-18 16:31N 09°16' W 079°55'0 0.4
2018-Jan-18 16:01N 09°16' W 079°55'0 1.0
2018-Jan-18 15:30N 09°15' W 079°55'3 5.1
2018-Jan-18 14:58N 09°13' W 079°55'7 9.5
2018-Jan-18 14:12N 09°09' W 079°49'  
Track history (hours):
 
Tides and Currents Weather Stations Pressure Air Temp Water Temp Dewpoint Dewpoint Depression Visibility Wind Speed Wind Dir Waves Ship Positions

Maersk Bintan

Last reported at 2018-Jan-19 13:37 UTC. Time now 2018-Jan-21 06:59 UTC.
Position N 09°43' W 079°40'.

Length 223 m; draft 11.8 m.

Type: Cargo ship. MMSI: 477178900.

Date/timePositionNaut miles runAvg speedWind from/ knotsBaromVisibWave heightAir tempDewpointWater temp
2018-Jan-19 13:37N 09°43' W 079°40'417.5
2018-Jan-19 13:24N 09°40' W 079°42'717.9
2018-Jan-19 13:00N 09°35' W 079°47'917.4
2018-Jan-19 12:30N 09°27' W 079°52'611.4
2018-Jan-19 12:01N 09°22' W 079°53'0 0.6
2018-Jan-19 11:22N 09°22' W 079°53'0 0.0
2018-Jan-19 10:58N 09°22' W 079°53'0 0.0
2018-Jan-19 10:28N 09°22' W 079°53'0 0.0
2018-Jan-19 09:58N 09°22' W 079°53'0 0.0
2018-Jan-19 09:28N 09°22' W 079°53'0 0.0
2018-Jan-19 08:58N 09°22' W 079°53'0 0.1
2018-Jan-19 08:28N 09°22' W 079°53'0 0.1
2018-Jan-19 07:58N 09°22' W 079°53'0 0.0
2018-Jan-19 07:28N 09°22' W 079°53'0 0.0
2018-Jan-19 06:58N 09°22' W 079°53'0 0.0
2018-Jan-19 06:28N 09°22' W 079°53'0 0.0
2018-Jan-19 05:58N 09°22' W 079°53'0 0.0
2018-Jan-19 05:28N 09°22' W 079°53'0 0.0
2018-Jan-19 04:58N 09°22' W 079°53'0 0.0
2018-Jan-19 03:07N 09°22' W 079°53'0 0.0
2018-Jan-19 02:58N 09°22' W 079°53'0 0.0
2018-Jan-19 02:28N 09°22' W 079°53'0 0.0
2018-Jan-19 01:58N 09°22' W 079°53'0 0.0
2018-Jan-19 01:28N 09°22' W 079°53'0 0.0
2018-Jan-19 00:58N 09°22' W 079°53'0 0.0
2018-Jan-19 00:28N 09°22' W 079°53'0 0.0
2018-Jan-18 23:58N 09°22' W 079°53'0 0.0
2018-Jan-18 23:28N 09°22' W 079°53'0 0.0
2018-Jan-18 22:58N 09°22' W 079°53'0 0.0
2018-Jan-18 22:28N 09°22' W 079°53'0 0.0
2018-Jan-18 21:58N 09°22' W 079°53'0 0.0
2018-Jan-18 21:28N 09°22' W 079°53'0 0.0
2018-Jan-18 20:58N 09°22' W 079°53'0 0.5
2018-Jan-18 20:30N 09°22' W 079°53'3 6.1
2018-Jan-18 20:00N 09°25' W 079°54'2 4.9
2018-Jan-18 19:30N 09°26' W 079°56'510.4
2018-Jan-18 19:00N 09°20' W 079°55'3 6.5
2018-Jan-18 18:30N 09°17' W 079°55'1 1.2
2018-Jan-18 17:58N 09°17' W 079°55'0 0.4
2018-Jan-18 17:31N 09°16' W 079°55'0 0.4
2018-Jan-18 17:00N 09°16' W 079°55'0 0.4
2018-Jan-18 16:31N 09°16' W 079°55'0 0.4
2018-Jan-18 16:01N 09°16' W 079°55'0 1.0
2018-Jan-18 15:30N 09°15' W 079°55'3 5.1
2018-Jan-18 14:58N 09°13' W 079°55'7 9.5
2018-Jan-18 14:12N 09°09' W 079°49'  

Dump ship's entire track history